Bellevue, WA

9:04 PM PST on November 26, 2014 (GMT -0800)
Boeing Field-King County International | Change Station
CLOSE
Current Station
Airport
Location: Seattle Boeing,
Elevation: 16 ft
Nearby Weather Stations
Active Advisory: Flood Warning, Areal Flood Watch Active Notice: Record Report

Elev 16 ft 47.53 °N, 122.30 °W | Updated 11 minutes ago

Overcast
Overcast
59 °F
Feels Like 59 °F
N
8
Wind Variable Wind from South

Today
High -- | Low -- °F
--% Chance of Precip.
Yesterday
High -- | Low -- °F
Precip. -- in
7:29 AM 4:22 PM
Waxing Crescent, 26% visible
Pressure 29.90 in
Visibility 10.0 miles
Clouds Few 4600 ft
Mostly Cloudy 8500 ft
Overcast 11000 ft
Dew Point 52 °F
Humidity 78%
Rainfall 0.01 in
Snow Depth Not available.
UV 0 out of 12
Pollen .10 out of 12
Air Quality Not available.
Flu Activity Not available.
METAR KBFI 270453Z 17007KT 10SM FEW046 BKN085 OVC110 15/11 A2989 RMK AO2 RAE13 SLP123 P0001 T01500111

More Conditions Fewer Conditions

Pressure 29.90 in
Visibility 10.0 miles
Clouds Few 4600 ft
Mostly Cloudy 8500 ft
Overcast 11000 ft
Dew Point 52 °F
Humidity 78%
Rainfall 0.01 in
Snow Depth Not available.
UV 0 out of 12
Pollen .10 out of 12
Air Quality Not available.
Flu Activity Not available.
METAR KBFI 270453Z 17007KT 10SM FEW046 BKN085 OVC110 15/11 A2989 RMK AO2 RAE13 SLP123 P0001 T01500111

More Conditions Fewer Conditions

10-Day Weather Forecast

Almanac

Astronomy

Nov. 26, 2014 Rise Set
Actual Time
Civil Twilight
Nautical Twilight
Astronomical Twilight
Moon
Length of Visible Light
Length of Day
Tomorrow will be .
, % of the Moon is Illuminated

Today's Extremes

State Highs State Lows

Community

WunderPhotos

Upload Photos

1,773,958 photos uploaded!

WunderBlogs® & News

Nearby

Air Quality

  Air Quality AQ Index Pollutant
Not available.

Snow Depth

Station Depth Elevation

Earthquake Activity

City Distance Mag. Time & Date
Minimum magnitude displayed is 2.5.

Coastal Water Temperatures

Place Temperature

Nearby Weather Stations